»·PEaware :: N351SR KPVF-KPVF

N351SR :: KPVF-KPVF

FLIGHT INFORMATION

Flight Status: Arrived
Operator: Privately registered:
United States
More flights under this callsign
Pilot: Rod T. (6553)
Aircraft: CIRRUS SR-22 TURBO
(S22T)
More flights by this aircraft type
Origin: KPVF Placerville
United States
Destination: KPVF Placerville
United States
More flights between these airports :: More routes between these airports
Route: KSAC
File this flight plan on PilotEdge
Remarks:
Altitude:
(Current/Filed)
4,500ft
Speed:
(Current/Filed)
175kts
Departed: 06-Aug-18 04:46 PM
Arrived: 06-Aug-18 05:28 PM
Distance/Time
Traveled:
0nm/0:42
Distance/Time
To Go:
Arrived

Flight Plot

Page will automatically refresh every two minutes.

Flight plan parsing failed; only flown route is shown


Map Options




Map Legend


Flown Route
Filed Route
Departure Airport
Arrival Airport
Navaid (VOR, NDB)
Fix

Horizontal Profiles

Position Reports

Time Latitude Longitude Heading Altitude Ground
Speed
06-Aug-18 16:35 38.722960 -120.758046 156 2586ft 0kts
06-Aug-18 16:36 38.722960 -120.758046 156 2586ft 0kts
06-Aug-18 16:37 38.722960 -120.758046 156 2586ft 0kts
06-Aug-18 16:38 38.722960 -120.758046 156 2586ft 0kts
06-Aug-18 16:39 38.722911 -120.758008 142 2586ft 2kts
06-Aug-18 16:40 38.724846 -120.752898 61 2586ft 21kts
06-Aug-18 16:41 38.727245 -120.747311 107 2586ft 0kts
06-Aug-18 16:42 38.727245 -120.747311 107 2586ft 0kts
06-Aug-18 16:43 38.727245 -120.747311 107 2586ft 0kts
06-Aug-18 16:44 38.727245 -120.747311 107 2586ft 0kts
06-Aug-18 16:45 38.727245 -120.747311 107 2586ft 0kts
06-Aug-18 16:46 38.727235 -120.747277 114 2586ft 2kts
06-Aug-18 16:47 38.719837 -120.764091 244 3043ft 106kts
06-Aug-18 16:48 38.699776 -120.795049 226 4434ft 121kts
06-Aug-18 16:49 38.674724 -120.834987 242 4567ft 166kts
06-Aug-18 16:50 38.651460 -120.888329 242 4563ft 175kts
06-Aug-18 16:51 38.627622 -120.943055 242 4563ft 176kts
06-Aug-18 16:52 38.603701 -120.997968 242 4563ft 176kts
06-Aug-18 16:53 38.579868 -121.052801 242 4563ft 176kts
06-Aug-18 16:54 38.556036 -121.107486 242 4563ft 176kts
06-Aug-18 16:55 38.532129 -121.162304 242 4563ft 176kts
06-Aug-18 16:56 38.507870 -121.216750 242 4508ft 179kts
06-Aug-18 16:57 38.481651 -121.273637 244 3171ft 200kts
06-Aug-18 16:58 38.460446 -121.326627 250 856ft 111kts
06-Aug-18 16:59 38.456291 -121.366363 266 1223ft 125kts
06-Aug-18 17:00 38.468630 -121.410687 301 1403ft 160kts
06-Aug-18 17:01 38.492671 -121.456585 302 785ft 129kts
06-Aug-18 17:02 38.513054 -121.470876 44 834ft 106kts
06-Aug-18 17:03 38.531769 -121.472989 274 385ft 82kts
06-Aug-18 17:04 38.516282 -121.491561 213 26ft 67kts
06-Aug-18 17:05 38.497520 -121.496939 120 857ft 107kts
06-Aug-18 17:06 38.516934 -121.469511 45 764ft 103kts
06-Aug-18 17:07 38.525893 -121.483192 224 278ft 83kts
06-Aug-18 17:08 38.508130 -121.498333 215 245ft 90kts
06-Aug-18 17:09 38.501552 -121.482998 33 1063ft 121kts
06-Aug-18 17:10 38.523517 -121.465759 326 621ft 95kts
06-Aug-18 17:11 38.519907 -121.488552 212 91ft 77kts
06-Aug-18 17:12 38.502235 -121.503035 205 539ft 97kts
06-Aug-18 17:13 38.494574 -121.471521 65 1913ft 125kts
06-Aug-18 17:14 38.511115 -121.431036 65 3318ft 144kts
06-Aug-18 17:15 38.525028 -121.384803 65 4948ft 137kts
06-Aug-18 17:16 38.539457 -121.333413 65 5482ft 177kts
06-Aug-18 17:17 38.557328 -121.272413 65 5478ft 185kts
06-Aug-18 17:18 38.575606 -121.210334 65 5478ft 187kts
06-Aug-18 17:19 38.594068 -121.148861 65 5501ft 187kts
06-Aug-18 17:20 38.617084 -121.088835 55 5414ft 188kts
06-Aug-18 17:21 38.634297 -121.037795 66 5412ft 188kts
06-Aug-18 17:22 38.653199 -120.963956 78 4827ft 184kts
06-Aug-18 17:23 38.662829 -120.900660 78 4322ft 178kts
06-Aug-18 17:24 38.672213 -120.838943 78 3823ft 176kts
06-Aug-18 17:25 38.680870 -120.789598 60 3575ft 152kts
06-Aug-18 17:26 38.711735 -120.751386 68 3511ft 112kts
06-Aug-18 17:27 38.721450 -120.718764 350 3138ft 107kts
06-Aug-18 17:28 38.728327 -120.743035 244 2683ft 82kts
06-Aug-18 17:29 38.722832 -120.757212 309 2586ft 13kts
06-Aug-18 17:30 38.722984 -120.758061 145 2586ft 0kts

Navigation Log

Ident Type
Flight plan parsing failed, navigation log unavailable